Nearby METAR Reports

 

TNCA - Queen Beatrix, Lesser Antilles
Distance from station: 0 0km
Updated: 28/04/2017 21:00
Few Clouds
Few Clouds
 Wind from ENE
Wind: ENE 37 km/h, Gust: 56 km/h
Temperature: 28°C
Heat Index: 32°C
Dew Point: 24°C
Humidity: 79%
Barometer: 1011 hPa
Clouds: Few Clouds
Visibility: 10 km
Cloud details: Few Clouds 549 m
2017/04/29 01:00 TNCA 290100Z 07020G30KT 9999 FEW018 28/24 Q1011 A2988 NOSIG
SVJC - Paraguana/Josefa, Venezuela
Distance from station: S 83km
Updated: 17/10/2016 15:00
NOT Current
Partly Cloudy
Partly Cloudy
 Wind from E
Wind: E 19 km/h
Temperature: 30°C
Heat Index: 33°C
Dew Point: 22°C
Humidity: 62%
Barometer: 1006 hPa
Clouds: Partly Cloudy
Visibility: 7 km
Cloud details: Partly Cloudy 1219 m
2016/10/17 19:00 SVJC 171900Z 09010KT 7000 SCT040 30/22 Q1006
 
TNCC - Hato Air Curacao, Lesser Antilles
Distance from station: ESE 117km
Updated: 28/04/2017 21:00
Few Clouds
Few Clouds
 Wind from E
Wind: E 26 km/h
Temperature: 27°C
Heat Index: 30°C
Dew Point: 23°C
Humidity: 79%
Barometer: 1013 hPa
Clouds: Few Clouds
Visibility: 10 km
Cloud details: Few Clouds 488 m
2017/04/29 01:00 TNCC 290100Z 09014KT 9999 FEW016 27/23 Q1013 NOSIG
SVCR - Coro/Jose Leonar, Venezuela
Distance from station: SSE 126km
Updated: 31/12/2016 11:00
NOT Current
Few Clouds
Few Clouds
 Wind from ESE
Wind: ESE 28 km/h
Clouds: Few Clouds
Visibility: 10 km
Cloud details: Few Clouds 488 m
2016/12/31 15:00 SVCR 311500Z 12015KT 9999 FEW016 XX/XX Q1015
 
TNCB - Bonaire/Flamingo, Lesser Antilles
Distance from station: ESE 191km
Updated: 28/04/2017 20:55
Few Clouds
Few Clouds
 Wind from E
Wind: E 28 km/h
Temperature: 27°C
Heat Index: 31°C
Dew Point: 24°C
Humidity: 84%
Barometer: 1013 hPa
Clouds: Few Clouds
Visibility: 10 km
Cloud details: Few Clouds 488 m
2017/04/29 00:55 TNCB 290055Z AUTO 08015KT 9999 FEW016/// 27/24 Q1013
SVMC - Maracaibo/La Chi, Venezuela
Distance from station: SW 285km
Updated: 20/04/2017 08:00
NOT Current

 
Visibility: 324 miles
2017/04/20 12:00 SVMC 201200 31002KT 9999 SCT013 26/22 Q1012=